createdAt,value
2022-09-24T00:03:20.853Z,66.26
2022-09-24T00:08:22.230Z,66.45
2022-09-24T00:13:23.505Z,67.01
2022-09-24T00:18:24.760Z,67.27
2022-09-24T00:23:26.698Z,67.78
2022-09-24T00:28:28.659Z,67.70
2022-09-24T00:33:30.417Z,67.77
2022-09-24T00:38:32.467Z,68.42
2022-09-24T00:43:36.655Z,68.65
2022-09-24T00:48:40.898Z,69.02
2022-09-24T00:53:43.571Z,69.27
2022-09-24T00:58:50.264Z,69.54
2022-09-24T01:03:55.355Z,70.18
2022-09-24T01:09:00.112Z,70.62
2022-09-24T01:14:11.016Z,70.77
2022-09-24T01:19:43.466Z,71.65
2022-09-24T01:24:54.418Z,71.65
2022-09-24T01:30:03.952Z,71.92
2022-09-24T01:35:18.659Z,71.81
2022-09-24T01:40:24.152Z,72.66
2022-09-24T01:45:29.965Z,72.47
2022-09-24T01:50:40.381Z,72.82
2022-09-24T01:55:49.533Z,72.04
2022-09-24T02:00:57.539Z,72.00
2022-09-24T02:06:25.046Z,72.54
2022-09-24T02:11:27.935Z,72.96
2022-09-24T02:16:36.528Z,73.51
2022-09-24T02:21:39.536Z,72.92
2022-09-24T02:26:41.124Z,73.64
2022-09-24T02:31:47.918Z,72.98
2022-09-24T02:36:55.881Z,72.77
2022-09-24T02:41:58.379Z,73.89
2022-09-24T02:47:00.124Z,74.36
2022-09-24T02:52:01.842Z,74.92
2022-09-24T02:57:03.374Z,74.23
2022-09-24T03:02:05.877Z,73.70
2022-09-24T03:07:07.294Z,73.84
2022-09-24T03:12:08.733Z,73.07
2022-09-24T03:17:09.990Z,73.17
2022-09-24T03:22:11.219Z,72.65
2022-09-24T03:27:12.490Z,75.06
2022-09-24T03:32:13.726Z,73.54
2022-09-24T03:37:14.958Z,73.02
2022-09-24T03:42:16.225Z,73.50
2022-09-24T03:47:17.478Z,72.21
2022-09-24T03:52:19.345Z,73.02
2022-09-24T03:57:20.663Z,72.19
2022-09-24T04:02:21.983Z,72.93
2022-09-24T04:07:23.474Z,73.70
2022-09-24T04:12:24.765Z,74.05
2022-09-24T04:17:31.236Z,74.53
2022-09-24T04:22:32.514Z,74.41
2022-09-24T04:27:35.993Z,74.99
2022-09-24T04:32:37.265Z,73.86
2022-09-24T04:37:38.507Z,73.11
2022-09-24T04:42:40.567Z,74.06
2022-09-24T04:47:41.884Z,72.95
2022-09-24T04:52:43.198Z,73.20
2022-09-24T04:57:45.863Z,74.62
2022-09-24T05:02:47.567Z,73.25
2022-09-24T05:07:49.395Z,73.17
2022-09-24T05:12:50.690Z,73.08
2022-09-24T05:17:52.026Z,73.24
2022-09-24T05:22:53.419Z,74.18
2022-09-24T05:27:55.665Z,74.10
2022-09-24T05:32:57.156Z,73.81
2022-09-24T05:37:59.644Z,74.53
2022-09-24T05:43:01.825Z,75.40
2022-09-24T05:48:03.244Z,75.43
2022-09-24T05:53:05.440Z,75.74
2022-09-24T05:58:09.449Z,75.47
2022-09-24T06:03:13.607Z,74.19
2022-09-24T06:08:19.990Z,73.48
2022-09-24T06:13:21.850Z,72.51
2022-09-24T06:18:24.451Z,72.25
2022-09-24T06:23:25.713Z,71.85
2022-09-24T06:28:26.950Z,71.23
2022-09-24T06:33:28.667Z,71.45
2022-09-24T06:38:30.783Z,71.96
2022-09-24T06:43:33.406Z,71.99
2022-09-24T06:48:34.845Z,71.66
2022-09-24T06:53:37.930Z,71.45
2022-09-24T06:58:39.212Z,71.23
2022-09-24T07:03:40.692Z,71.31
2022-09-24T07:08:41.966Z,70.76
2022-09-24T07:13:43.237Z,70.40
2022-09-24T07:18:44.475Z,70.87
2022-09-24T07:23:45.912Z,70.39
2022-09-24T07:28:47.223Z,69.24
2022-09-24T07:33:48.505Z,69.64
2022-09-24T07:38:50.007Z,69.21
2022-09-24T07:43:51.305Z,68.29
2022-09-24T07:48:55.942Z,69.12
2022-09-24T07:53:58.171Z,67.09
2022-09-24T07:58:59.556Z,66.23
2022-09-24T08:04:01.237Z,65.40
2022-09-24T08:09:03.725Z,63.38
2022-09-24T08:14:05.026Z,63.48
2022-09-24T08:19:06.468Z,63.11
2022-09-24T08:24:07.781Z,61.99
2022-09-24T08:29:09.237Z,62.70
2022-09-24T08:34:10.559Z,62.14
2022-09-24T08:39:13.554Z,63.33
2022-09-24T08:44:57.966Z,63.10
2022-09-24T08:50:12.952Z,63.91
2022-09-24T08:55:26.194Z,61.08
2022-09-24T09:00:31.572Z,58.66
2022-09-24T09:05:52.270Z,55.25
2022-09-24T09:11:00.375Z,54.08
2022-09-24T09:16:06.849Z,54.08
2022-09-24T09:21:16.901Z,54.24
2022-09-24T09:26:20.141Z,54.74
2022-09-24T09:31:40.427Z,53.30
2022-09-24T09:37:14.281Z,52.22
2022-09-24T09:42:32.199Z,50.50
2022-09-24T09:47:43.302Z,48.55
2022-09-24T09:52:44.616Z,48.26
2022-09-24T09:57:45.945Z,46.21
2022-09-24T10:02:50.879Z,43.04
2022-09-24T10:07:53.044Z,43.55
2022-09-24T10:13:14.606Z,37.07
2022-09-24T10:18:16.807Z,36.14
2022-09-24T10:23:26.165Z,36.66
2022-09-24T10:28:47.365Z,37.26
2022-09-24T10:33:51.498Z,36.97
2022-09-24T10:39:03.636Z,35.77
2022-09-24T10:44:11.447Z,38.78
2022-09-24T10:49:50.614Z,38.06
2022-09-24T10:55:36.108Z,38.65
2022-09-24T11:00:40.450Z,34.97
2022-09-24T11:05:52.170Z,35.46
2022-09-24T11:11:04.632Z,38.85
2022-09-24T11:16:26.316Z,38.55
2022-09-24T11:22:11.596Z,38.17
2022-09-24T11:27:15.915Z,41.88
2022-09-24T11:32:34.206Z,42.56
2022-09-24T11:37:54.083Z,42.94
2022-09-24T11:43:21.961Z,39.29
2022-09-24T11:49:07.119Z,32.81
2022-09-24T11:54:19.759Z,30.94
2022-09-24T12:00:08.602Z,33.29
2022-09-24T12:05:36.446Z,35.85
2022-09-24T12:10:49.725Z,37.85
2022-09-24T12:16:02.843Z,40.37
2022-09-24T12:21:12.902Z,39.49
2022-09-24T12:26:17.190Z,39.53
2022-09-24T12:31:47.284Z,37.85
2022-09-24T12:37:01.929Z,38.49
2022-09-24T12:42:08.488Z,38.73
2022-09-24T12:47:20.345Z,38.93
2022-09-24T12:52:51.238Z,38.73
2022-09-24T12:58:00.046Z,38.63
2022-09-24T13:03:03.029Z,38.15
2022-09-24T13:08:07.026Z,35.69
2022-09-24T13:13:27.406Z,35.13
2022-09-24T13:18:30.553Z,35.44
2022-09-24T13:23:37.749Z,35.84
2022-09-24T13:28:48.596Z,35.95
2022-09-24T13:33:54.984Z,34.85
2022-09-24T13:39:03.280Z,31.79
2022-09-24T13:44:13.993Z,34.42
2022-09-24T13:49:20.481Z,33.29
2022-09-24T13:54:33.997Z,33.01
2022-09-24T13:59:35.278Z,34.32
2022-09-24T14:04:42.034Z,35.62
2022-09-24T14:09:47.512Z,36.92
2022-09-24T14:14:57.952Z,38.24
2022-09-24T14:19:59.294Z,39.48
2022-09-24T14:25:02.829Z,39.93
2022-09-24T14:30:17.269Z,40.74
2022-09-24T14:35:31.047Z,41.44
2022-09-24T14:40:42.101Z,41.84
2022-09-24T14:45:43.721Z,43.26
2022-09-24T14:50:45.069Z,42.54
2022-09-24T14:55:46.805Z,44.12
2022-09-24T15:00:51.638Z,44.45
2022-09-24T15:06:01.291Z,44.34
2022-09-24T15:11:05.207Z,44.56
2022-09-24T15:16:06.818Z,44.69
2022-09-24T15:21:10.945Z,45.46
2022-09-24T15:26:12.293Z,45.30
2022-09-24T15:31:13.743Z,45.29
2022-09-24T15:36:18.709Z,45.98
2022-09-24T15:41:20.045Z,46.06
2022-09-24T15:46:21.390Z,46.17
2022-09-24T15:51:23.491Z,46.04
2022-09-24T15:56:24.796Z,46.01
2022-09-24T16:01:26.144Z,46.43
2022-09-24T16:06:27.592Z,47.09
2022-09-24T16:11:28.932Z,48.08
2022-09-24T16:16:30.249Z,48.62
2022-09-24T16:21:31.567Z,49.08
2022-09-24T16:26:34.292Z,48.87
2022-09-24T16:31:35.635Z,49.60
2022-09-24T16:36:37.528Z,49.99
2022-09-24T16:41:39.530Z,50.45
2022-09-24T16:46:42.071Z,50.62
2022-09-24T16:51:43.430Z,50.94
2022-09-24T16:56:44.831Z,51.38
2022-09-24T17:01:46.268Z,50.91
2022-09-24T17:06:47.705Z,51.75
2022-09-24T17:11:49.629Z,52.04
2022-09-24T17:16:50.961Z,53.15
2022-09-24T17:21:53.403Z,52.97
2022-09-24T17:26:56.451Z,53.98
2022-09-24T17:31:57.921Z,53.98
2022-09-24T17:36:59.697Z,54.62
2022-09-24T17:42:02.357Z,55.25
2022-09-24T17:47:04.062Z,54.92
2022-09-24T17:52:05.997Z,55.44
2022-09-24T17:57:07.378Z,54.73
2022-09-24T18:02:10.327Z,55.94
2022-09-24T18:07:11.674Z,57.08
2022-09-24T18:12:17.069Z,56.57
2022-09-24T18:17:18.631Z,55.54
2022-09-24T18:22:19.911Z,55.90
2022-09-24T18:27:23.003Z,56.01
2022-09-24T18:32:26.291Z,57.47
2022-09-24T18:37:27.547Z,58.19
2022-09-24T18:42:29.020Z,57.17
2022-09-24T18:47:30.515Z,59.31
2022-09-24T18:52:32.512Z,59.78
2022-09-24T18:57:33.830Z,61.36
2022-09-24T19:02:35.295Z,61.38
2022-09-24T19:07:36.575Z,63.85
2022-09-24T19:12:38.958Z,65.69
2022-09-24T19:17:40.231Z,67.31
2022-09-24T19:22:49.464Z,68.27
2022-09-24T19:27:50.989Z,69.14
2022-09-24T19:32:52.304Z,71.30
2022-09-24T19:37:53.593Z,72.59
2022-09-24T19:42:54.869Z,75.87
2022-09-24T19:47:56.089Z,76.11
2022-09-24T19:52:57.485Z,78.59
2022-09-24T19:58:01.060Z,79.29
2022-09-24T20:03:02.402Z,79.26
2022-09-24T20:08:03.858Z,79.38
2022-09-24T20:13:05.692Z,81.01
2022-09-24T20:18:09.449Z,82.27
2022-09-24T20:23:10.786Z,82.87
2022-09-24T20:28:16.586Z,83.60
2022-09-24T20:33:20.098Z,83.57
2022-09-24T20:38:21.430Z,82.21
2022-09-24T20:43:24.089Z,82.65
2022-09-24T20:48:25.365Z,83.09
2022-09-24T20:53:28.827Z,83.33
2022-09-24T20:58:30.166Z,82.23
2022-09-24T21:03:44.096Z,81.95
2022-09-24T21:08:47.404Z,81.10
2022-09-24T21:13:51.363Z,81.90
2022-09-24T21:18:56.261Z,83.64
2022-09-24T21:24:01.422Z,86.63
2022-09-24T21:29:12.217Z,84.36
2022-09-24T21:34:16.307Z,82.60
2022-09-24T21:39:26.417Z,81.87
2022-09-24T21:44:31.882Z,83.09
2022-09-24T21:49:36.443Z,83.37
2022-09-24T21:54:39.532Z,82.56
2022-09-24T21:59:59.431Z,82.45
2022-09-24T22:05:01.410Z,82.30
2022-09-24T22:10:02.718Z,83.35
2022-09-24T22:15:04.360Z,84.17
2022-09-24T22:20:06.367Z,84.22
2022-09-24T22:25:08.242Z,84.11
2022-09-24T22:30:10.203Z,85.14
2022-09-24T22:35:30.273Z,85.62
2022-09-24T22:40:31.628Z,86.42
2022-09-24T22:45:34.113Z,87.12
2022-09-24T22:50:35.613Z,87.18
2022-09-24T22:55:36.855Z,86.15
2022-09-24T23:00:38.295Z,87.21
2022-09-24T23:05:39.535Z,86.43
2022-09-24T23:10:40.790Z,86.61
2022-09-24T23:15:42.755Z,85.61
2022-09-24T23:20:44.290Z,84.64
2022-09-24T23:25:45.651Z,84.93
2022-09-24T23:30:57.306Z,84.75
2022-09-24T23:35:58.723Z,84.69
2022-09-24T23:41:00.698Z,85.75
2022-09-24T23:46:02.985Z,86.48
2022-09-24T23:51:04.920Z,86.60
2022-09-24T23:56:07.877Z,86.36
